Time;durP1;ratioP1;P1;durP2;ratioP2;P2;SDS_P1;SDS_P2;PMS_P1;PMS_P2;Temp;Humidity;BMP_temperature;BMP_pressure;BME280_temperature;BME280_humidity;BME280_pressure;Samples;Min_cycle;Max_cycle;Signal;HPM_P1;HPM_P2
2022/08/27 03:02:38;;;;;;;2.03;1.93;;;21.70;84.30;;;;;;5223621;22;20588;-71
2022/08/27 03:05:06;;;;;;;2.20;2.10;;;21.70;83.90;;;;;;5035162;28;20887;-72
2022/08/27 03:07:33;;;;;;;2.03;1.93;;;21.70;84.00;;;;;;5034746;28;20984;-71
2022/08/27 03:09:59;;;;;;;2.37;2.27;;;21.70;84.00;;;;;;5035008;28;20452;-71
2022/08/27 03:12:26;;;;;;;1.77;1.67;;;21.60;84.10;;;;;;5034937;28;20539;-71
2022/08/27 03:14:53;;;;;;;1.97;1.87;;;21.60;84.00;;;;;;5036354;28;20451;-72
2022/08/27 03:20:07;;;;;;;1.90;1.80;;;21.60;84.10;;;;;;5034990;28;20470;-71
2022/08/27 03:22:33;;;;;;;1.90;1.80;;;21.60;84.20;;;;;;5034736;28;20472;-72
2022/08/27 03:25:01;;;;;;;1.80;1.70;;;21.60;84.00;;;;;;5034732;28;20447;-72
2022/08/27 03:27:28;;;;;;;2.00;1.90;;;21.50;84.30;;;;;;5034597;28;20443;-72
2022/08/27 03:29:55;;;;;;;2.00;1.90;;;21.50;84.20;;;;;;5034624;28;20510;-72
2022/08/27 03:32:21;;;;;;;1.63;1.53;;;21.50;83.70;;;;;;5034570;28;20880;-71
2022/08/27 03:34:48;;;;;;;1.30;1.20;;;21.50;83.30;;;;;;5034232;28;20850;-72
2022/08/27 03:37:16;;;;;;;1.60;1.50;;;21.50;83.10;;;;;;5034488;28;20447;-72
2022/08/27 03:39:43;;;;;;;1.60;1.53;;;21.50;82.70;;;;;;5034463;28;20444;-72
2022/08/27 03:42:09;;;;;;;1.60;1.50;;;21.50;82.90;;;;;;5034280;28;20487;-72
2022/08/27 03:44:36;;;;;;;1.43;1.33;;;21.60;82.80;;;;;;5034404;28;20851;-72
2022/08/27 03:47:03;;;;;;;1.17;1.17;;;21.60;82.60;;;;;;5033999;28;20939;-72
2022/08/27 03:49:30;;;;;;;1.50;1.40;;;21.60;82.40;;;;;;5034207;28;20514;-72
2022/08/27 03:51:57;;;;;;;1.60;1.50;;;21.60;82.00;;;;;;5034160;28;20463;-71
2022/08/27 03:54:25;;;;;;;1.60;1.50;;;21.70;81.70;;;;;;5034168;28;20479;-71
2022/08/27 03:56:52;;;;;;;1.80;1.70;;;21.70;81.40;;;;;;5033781;28;20817;-72
2022/08/27 03:59:19;;;;;;;1.60;1.50;;;21.60;81.70;;;;;;5034136;28;20444;-72
2022/08/27 04:01:46;;;;;;;1.60;1.50;;;21.60;81.80;;;;;;5033755;28;20474;-73
2022/08/27 04:04:12;;;;;;;1.80;1.70;;;21.60;81.80;;;;;;5034246;28;20451;-72
2022/08/27 04:06:39;;;;;;;1.77;1.67;;;21.60;81.80;;;;;;5033664;28;20455;-71
2022/08/27 04:09:06;;;;;;;2.13;2.03;;;21.60;82.00;;;;;;5033870;28;20915;-72
2022/08/27 04:11:35;;;;;;;2.07;1.97;;;21.60;82.00;;;;;;5033532;28;20982;-72
2022/08/27 04:14:04;;;;;;;2.30;2.20;;;21.70;82.00;;;;;;5033852;28;20447;-72
2022/08/27 04:16:31;;;;;;;2.53;2.43;;;21.70;82.10;;;;;;5034103;28;20506;-72
2022/08/27 04:18:58;;;;;;;2.50;2.40;;;21.70;82.10;;;;;;5033506;28;21013;-72
2022/08/27 04:21:25;;;;;;;2.60;2.50;;;21.70;82.20;;;;;;5033756;28;20510;-72
2022/08/27 04:23:51;;;;;;;2.50;2.40;;;21.70;82.30;;;;;;5033762;28;20502;-72
2022/08/27 04:26:18;;;;;;;3.03;2.93;;;21.70;82.00;;;;;;5033678;28;20455;-72
2022/08/27 04:28:46;;;;;;;3.03;2.93;;;21.60;82.10;;;;;;5033544;28;20479;-71
2022/08/27 04:31:13;;;;;;;2.63;2.53;;;21.70;82.10;;;;;;5033527;28;20476;-70
2022/08/27 04:33:40;;;;;;;2.60;2.50;;;21.60;82.10;;;;;;5033593;28;20454;-70
2022/08/27 04:36:09;;;;;;;2.57;2.47;;;21.60;82.00;;;;;;5033597;28;20505;-71
2022/08/27 04:38:36;;;;;;;2.57;2.47;;;21.60;82.30;;;;;;5033646;28;20539;-71
2022/08/27 04:41:23;;;;;;;2.33;2.23;;;21.60;82.40;;;;;;5033437;28;20470;-72
2022/08/27 04:43:54;;;;;;;2.43;2.33;;;21.50;82.40;;;;;;5033682;28;20451;-71
2022/08/27 04:46:22;;;;;;;2.50;2.40;;;21.50;82.30;;;;;;5033488;28;20436;-72
2022/08/27 04:48:49;;;;;;;2.63;2.53;;;21.40;82.80;;;;;;5033286;28;20479;-72
2022/08/27 04:51:16;;;;;;;2.43;2.33;;;21.40;83.00;;;;;;5033326;28;20463;-71
2022/08/27 04:53:43;;;;;;;2.67;2.57;;;21.40;83.10;;;;;;5033392;28;20930;-71
2022/08/27 04:56:13;;;;;;;3.00;2.90;;;21.40;83.10;;;;;;5033319;28;20517;-72
2022/08/27 04:58:40;;;;;;;3.10;3.00;;;21.30;83.60;;;;;;5033328;28;20519;-73
2022/08/27 05:01:09;;;;;;;3.00;2.90;;;21.30;83.80;;;;;;5033060;28;20537;-73
2022/08/27 05:03:36;;;;;;;3.50;3.37;;;21.20;84.20;;;;;;5033228;28;20860;-73
2022/08/27 05:06:05;;;;;;;3.67;3.57;;;21.20;84.50;;;;;;5033221;28;20451;-73
2022/08/27 05:08:32;;;;;;;3.43;3.33;;;21.20;84.70;;;;;;5033105;28;20481;-73
2022/08/27 05:11:00;;;;;;;3.33;3.13;;;21.20;84.60;;;;;;5033114;28;20498;-73
2022/08/27 05:13:28;;;;;;;3.50;3.40;;;21.20;84.60;;;;;;5033180;28;20447;-73
2022/08/27 05:15:59;;;;;;;3.97;3.77;;;21.20;84.80;;;;;;5033164;28;20455;-73
2022/08/27 05:18:27;;;;;;;3.13;3.03;;;21.30;84.80;;;;;;5036334;28;20436;-73
2022/08/27 05:20:54;;;;;;;3.50;3.40;;;21.30;84.50;;;;;;5036702;28;20982;-73
2022/08/27 05:23:21;;;;;;;3.40;3.30;;;21.20;85.00;;;;;;5037013;28;21001;-73
2022/08/27 05:25:50;;;;;;;3.60;3.30;;;21.20;85.10;;;;;;5036995;28;20508;-74
2022/08/27 05:28:20;;;;;;;3.20;3.10;;;21.30;84.70;;;;;;5036835;28;20451;-74
2022/08/27 05:30:48;;;;;;;3.60;3.50;;;21.20;84.90;;;;;;5037138;28;20467;-73
2022/08/27 05:33:17;;;;;;;3.30;3.20;;;21.30;84.60;;;;;;5036829;28;20451;-74
2022/08/27 05:35:47;;;;;;;3.17;3.07;;;21.40;84.60;;;;;;5036483;28;21026;-73
2022/08/27 05:38:15;;;;;;;3.50;3.40;;;21.40;84.30;;;;;;5036469;28;20934;-73
2022/08/27 05:40:42;;;;;;;3.30;3.20;;;21.40;84.60;;;;;;5037374;28;20808;-73
2022/08/27 05:43:11;;;;;;;2.83;2.73;;;21.40;84.60;;;;;;5036659;28;20455;-74
2022/08/27 05:45:40;;;;;;;2.83;2.73;;;21.50;84.50;;;;;;5036632;28;20454;-73
2022/08/27 05:48:07;;;;;;;3.33;3.23;;;21.60;84.30;;;;;;5036505;28;20448;-74
2022/08/27 05:50:34;;;;;;;3.33;3.23;;;21.60;84.20;;;;;;5043283;28;20459;-74
2022/08/27 05:53:13;;;;;;;2.80;2.70;;;21.70;84.20;;;;;;5051345;28;20518;-74
2022/08/27 05:55:45;;;;;;;3.50;3.40;;;21.80;83.90;;;;;;5051353;28;20522;-73
2022/08/27 06:01:06;;;;;;;2.77;2.67;;;21.80;84.00;;;;;;5050225;28;20482;-72
2022/08/27 06:03:36;;;;;;;2.70;2.60;;;21.90;83.90;;;;;;5051886;28;20788;-73
2022/08/27 06:06:11;;;;;;;3.13;3.03;;;21.90;83.50;;;;;;5051774;28;20490;-72
2022/08/27 06:08:39;;;;;;;2.63;2.53;;;21.80;84.10;;;;;;5051014;28;20471;-73
2022/08/27 06:11:18;;;;;;;2.40;2.30;;;21.90;83.80;;;;;;5052334;28;20467;-74
2022/08/27 06:13:45;;;;;;;2.70;2.60;;;22.00;83.30;;;;;;5050806;28;20412;-72
2022/08/27 06:16:15;;;;;;;2.87;2.77;;;22.00;83.10;;;;;;5050422;28;20454;-72
2022/08/27 06:18:44;;;;;;;2.63;2.53;;;22.00;83.20;;;;;;5051064;28;20439;-72
2022/08/27 06:21:12;;;;;;;2.70;2.60;;;22.00;83.70;;;;;;5051192;28;20528;-72
2022/08/27 06:23:43;;;;;;;3.37;3.27;;;22.00;83.80;;;;;;5053780;28;20460;-72
2022/08/27 06:26:19;;;;;;;3.27;3.17;;;22.10;83.60;;;;;;5054316;28;20440;-73
2022/08/27 06:28:54;;;;;;;2.87;2.77;;;22.10;83.70;;;;;;5053024;28;20481;-72
2022/08/27 06:31:23;;;;;;;3.07;2.97;;;22.10;83.30;;;;;;5049208;28;20467;-73
2022/08/27 06:33:51;;;;;;;2.80;2.70;;;22.10;83.40;;;;;;5039811;28;20451;-73
2022/08/27 06:36:21;;;;;;;3.03;2.93;;;22.00;83.40;;;;;;5035357;28;20822;-73
2022/08/27 06:38:50;;;;;;;3.00;2.90;;;22.00;83.60;;;;;;5035962;28;20455;-73
2022/08/27 06:41:23;;;;;;;2.93;2.83;;;22.00;83.30;;;;;;5035532;28;20538;-73
2022/08/27 06:43:50;;;;;;;2.63;2.53;;;22.00;83.60;;;;;;5035732;28;20444;-73
2022/08/27 06:46:18;;;;;;;2.73;2.63;;;22.00;83.50;;;;;;5035731;28;20443;-73
2022/08/27 06:48:46;;;;;;;2.93;2.83;;;22.00;83.80;;;;;;5035469;28;20486;-73
2022/08/27 06:51:15;;;;;;;2.93;2.83;;;22.00;83.70;;;;;;5035106;28;20973;-72
2022/08/27 06:53:43;;;;;;;3.13;3.03;;;22.00;83.80;;;;;;5035440;28;20534;-73
2022/08/27 06:56:13;;;;;;;3.00;2.90;;;22.00;83.80;;;;;;5035344;28;20671;-73
2022/08/27 06:58:40;;;;;;;3.00;2.90;;;22.10;83.70;;;;;;5035276;28;20665;-73
2022/08/27 07:01:13;;;;;;;3.00;2.90;;;22.00;83.90;;;;;;5035108;28;20479;-73
2022/08/27 07:03:40;;;;;;;2.97;2.87;;;22.10;84.10;;;;;;5035261;28;20466;-73
2022/08/27 07:06:07;;;;;;;3.30;3.13;;;22.20;83.80;;;;;;5035091;28;20526;-72
2022/08/27 07:08:34;;;;;;;2.60;2.50;;;22.20;83.80;;;;;;5035049;28;20451;-73
2022/08/27 07:11:01;;;;;;;2.70;2.60;;;22.20;83.40;;;;;;5034962;28;20546;-72
2022/08/27 07:13:29;;;;;;;3.13;3.03;;;22.30;83.90;;;;;;5035045;28;20456;-73
2022/08/27 07:15:56;;;;;;;2.50;2.40;;;22.40;83.70;;;;;;5035067;28;20444;-73
2022/08/27 07:18:24;;;;;;;3.57;3.37;;;22.60;83.10;;;;;;5034975;28;20447;-74
2022/08/27 07:20:53;;;;;;;2.50;2.40;;;22.60;82.80;;;;;;5034764;28;20475;-73
2022/08/27 07:23:20;;;;;;;2.80;2.70;;;22.50;82.40;;;;;;5035250;28;20446;-73
2022/08/27 07:25:47;;;;;;;2.37;2.27;;;22.50;82.50;;;;;;5034516;28;20954;-73
2022/08/27 07:28:13;;;;;;;2.77;2.67;;;22.50;82.70;;;;;;5034787;28;20458;-74
2022/08/27 07:30:41;;;;;;;2.73;2.63;;;22.50;82.00;;;;;;5034622;28;20546;-73
2022/08/27 07:33:08;;;;;;;2.70;2.60;;;22.50;82.20;;;;;;5034748;28;20447;-71
2022/08/27 07:35:35;;;;;;;2.93;2.67;;;22.50;82.10;;;;;;5034350;28;20448;-73
2022/08/27 07:38:02;;;;;;;2.90;2.80;;;22.40;82.20;;;;;;5034582;28;20820;-73
2022/08/27 07:40:28;;;;;;;2.70;2.50;;;22.40;82.30;;;;;;5033234;28;20939;-75
2022/08/27 07:45:45;;;;;;;2.97;2.83;;;22.40;82.30;;;;;;5034832;28;20455;-71
2022/08/27 07:48:12;;;;;;;2.30;2.20;;;22.40;82.40;;;;;;5034406;28;20435;-71
2022/08/27 07:50:38;;;;;;;2.57;2.43;;;22.50;82.50;;;;;;5034183;28;20494;-71
2022/08/27 07:53:06;;;;;;;2.87;2.77;;;22.50;82.70;;;;;;5034283;28;20513;-71
2022/08/27 07:55:35;;;;;;;2.57;2.47;;;22.40;82.50;;;;;;5034221;28;20456;-71
2022/08/27 07:58:01;;;;;;;2.60;2.50;;;22.40;82.50;;;;;;5033858;28;20448;-71
2022/08/27 08:00:28;;;;;;;2.43;2.33;;;22.40;82.90;;;;;;5034014;28;20451;-71
2022/08/27 08:02:56;;;;;;;2.60;2.50;;;22.50;82.90;;;;;;5033886;28;21018;-72
2022/08/27 08:05:23;;;;;;;2.83;2.73;;;22.50;82.50;;;;;;5033751;28;20456;-72
2022/08/27 08:07:50;;;;;;;2.40;2.30;;;22.60;82.30;;;;;;5033994;28;20455;-70
2022/08/27 08:10:18;;;;;;;2.73;2.63;;;22.60;81.90;;;;;;5033925;28;20483;-71
2022/08/27 08:12:45;;;;;;;2.67;2.57;;;22.50;82.30;;;;;;5033786;28;20467;-71
2022/08/27 08:15:12;;;;;;;2.83;2.73;;;22.50;82.40;;;;;;5033857;28;20494;-72
2022/08/27 08:17:39;;;;;;;2.70;2.60;;;22.40;82.60;;;;;;5033851;28;20444;-73
2022/08/27 08:20:10;;;;;;;2.90;2.80;;;22.30;83.00;;;;;;5033786;28;20994;-72
2022/08/27 08:22:37;;;;;;;2.60;2.50;;;22.30;83.20;;;;;;5033714;28;20483;-72
2022/08/27 08:25:05;;;;;;;3.27;3.07;;;22.30;83.40;;;;;;5033716;28;20450;-72
2022/08/27 08:27:32;;;;;;;3.20;3.10;;;22.30;83.40;;;;;;5034180;28;20451;-71
2022/08/27 08:29:59;;;;;;;2.77;2.67;;;22.30;83.20;;;;;;5033520;28;20938;-72
2022/08/27 08:32:26;;;;;;;2.63;2.53;;;22.20;83.60;;;;;;5033646;28;20475;-72
2022/08/27 08:34:52;;;;;;;2.80;2.70;;;22.10;83.90;;;;;;5033368;28;20939;-72
2022/08/27 08:37:20;;;;;;;3.20;3.10;;;22.20;84.30;;;;;;5033701;28;20452;-74
2022/08/27 08:39:47;;;;;;;2.73;2.63;;;22.20;84.70;;;;;;5033499;28;20459;-72
2022/08/27 08:42:29;;;;;;;3.10;3.00;;;22.30;84.70;;;;;;5033499;28;20472;-72
2022/08/27 08:44:58;;;;;;;2.70;2.60;;;22.50;84.50;;;;;;5033539;28;20439;-73
2022/08/27 08:47:30;;;;;;;3.30;3.10;;;22.60;84.30;;;;;;5033306;28;20509;-73
2022/08/27 08:50:02;;;;;;;3.63;3.43;;;22.70;83.20;;;;;;5033383;28;20562;-73
2022/08/27 08:52:50;;;;;;;2.50;2.40;;;22.80;82.50;;;;;;5033342;28;20840;-72
2022/08/27 08:55:37;;;;;;;2.83;2.73;;;22.80;82.50;;;;;;5033099;28;20997;-72
2022/08/27 08:58:14;;;;;;;2.60;2.50;;;22.80;82.40;;;;;;5033356;28;20432;-72
2022/08/27 09:00:43;;;;;;;2.97;2.87;;;22.80;82.70;;;;;;5033757;28;20466;-73
2022/08/27 09:03:11;;;;;;;3.17;3.07;;;22.80;82.90;;;;;;5033375;28;20477;-73
2022/08/27 09:05:42;;;;;;;2.93;2.83;;;22.80;83.00;;;;;;5033460;28;20448;-73
2022/08/27 09:08:17;;;;;;;2.83;2.73;;;22.80;82.60;;;;;;5033154;28;20448;-72
2022/08/27 09:10:51;;;;;;;3.00;2.90;;;22.70;82.20;;;;;;5032870;28;20536;-73
2022/08/27 09:13:25;;;;;;;3.23;3.13;;;22.60;83.00;;;;;;5034423;28;20427;-72
2022/08/27 09:15:56;;;;;;;2.63;2.53;;;22.60;83.00;;;;;;5032899;28;20907;-73
2022/08/27 09:18:23;;;;;;;2.83;2.73;;;22.60;83.30;;;;;;5033287;28;20435;-73
2022/08/27 09:20:54;;;;;;;3.00;2.90;;;22.60;83.20;;;;;;5033113;28;20455;-73
2022/08/27 09:23:31;;;;;;;3.30;3.10;;;22.60;83.40;;;;;;5033182;28;20884;-72
2022/08/27 09:25:57;;;;;;;3.13;3.03;;;22.50;83.30;;;;;;5033136;28;20837;-72
2022/08/27 09:31:14;;;;;;;2.80;2.70;;;22.50;83.60;;;;;;5032715;28;20566;-73
2022/08/27 09:33:40;;;;;;;3.00;2.90;;;22.50;83.60;;;;;;5032994;28;20517;-73
2022/08/27 09:36:10;;;;;;;2.80;2.70;;;22.50;84.00;;;;;;5032944;28;20444;-73
2022/08/27 09:38:41;;;;;;;2.93;2.83;;;22.50;83.70;;;;;;5033992;28;20759;-73
2022/08/27 09:41:16;;;;;;;2.73;2.63;;;22.50;84.10;;;;;;5032960;28;20869;-73
2022/08/27 09:43:43;;;;;;;2.60;2.50;;;22.50;84.20;;;;;;5032768;28;20415;-73
2022/08/27 09:46:20;;;;;;;2.73;2.63;;;22.60;84.70;;;;;;5032622;28;20541;-73
2022/08/27 09:48:47;;;;;;;2.67;2.57;;;22.60;83.70;;;;;;5032932;28;20431;-73
2022/08/27 09:51:17;;;;;;;2.33;2.23;;;22.50;83.80;;;;;;5032443;28;20842;-72
2022/08/27 09:53:49;;;;;;;2.97;2.87;;;22.60;83.60;;;;;;5032779;28;20514;-72
2022/08/27 09:56:26;;;;;;;2.50;2.40;;;22.70;83.40;;;;;;5032569;28;20539;-73
2022/08/27 09:58:55;;;;;;;2.33;2.23;;;22.80;83.50;;;;;;5032764;28;20903;-72
2022/08/27 10:01:24;;;;;;;2.10;2.00;;;22.80;83.30;;;;;;5032283;28;20994;-73
2022/08/27 10:03:50;;;;;;;1.97;1.87;;;22.90;83.30;;;;;;5034783;28;20447;-73
2022/08/27 10:06:27;;;;;;;2.27;2.07;;;22.90;83.00;;;;;;5036305;28;20450;-73
2022/08/27 10:09:01;;;;;;;1.80;1.70;;;22.80;82.70;;;;;;5036238;28;20436;-73
2022/08/27 10:11:32;;;;;;;1.73;1.63;;;22.80;83.50;;;;;;5036071;28;20495;-72
2022/08/27 10:14:04;;;;;;;1.50;1.40;;;22.90;83.30;;;;;;5035828;28;20919;-72
2022/08/27 10:16:51;;;;;;;1.00;1.00;;;22.80;83.50;;;;;;5036113;28;20440;-73
2022/08/27 10:19:29;;;;;;;1.00;1.00;;;22.80;83.90;;;;;;5036079;28;20470;-73
2022/08/27 10:22:06;;;;;;;1.30;1.20;;;22.90;83.30;;;;;;5035954;28;20554;-73
2022/08/27 10:24:41;;;;;;;0.97;0.93;;;23.00;83.20;;;;;;5036274;28;20435;-73
2022/08/27 10:27:17;;;;;;;1.00;1.00;;;23.10;82.60;;;;;;5035916;28;20489;-72
2022/08/27 10:29:52;;;;;;;1.20;1.10;;;23.20;82.40;;;;;;5035855;28;20412;-73
2022/08/27 10:32:33;;;;;;;0.90;0.90;;;23.20;81.70;;;;;;5035468;28;20463;-72
2022/08/27 10:35:15;;;;;;;1.20;0.90;;;23.30;81.30;;;;;;5035859;28;20428;-72
2022/08/27 10:37:50;;;;;;;1.37;1.27;;;23.30;81.20;;;;;;5035766;28;20519;-72
2022/08/27 10:40:24;;;;;;;1.17;1.10;;;23.20;80.90;;;;;;5035695;28;20431;-73
2022/08/27 10:43:06;;;;;;;1.10;1.10;;;23.10;80.90;;;;;;5035667;28;20431;-72
2022/08/27 10:45:43;;;;;;;1.00;1.00;;;23.00;81.50;;;;;;5035600;28;20432;-73
2022/08/27 10:48:22;;;;;;;1.30;1.20;;;23.00;81.70;;;;;;5035601;28;20427;-72
2022/08/27 10:50:53;;;;;;;1.10;1.10;;;23.10;81.90;;;;;;5035633;28;20486;-73
2022/08/27 10:53:26;;;;;;;1.10;1.10;;;23.10;82.30;;;;;;5035476;28;20439;-72
2022/08/27 10:56:06;;;;;;;1.40;1.30;;;23.10;81.90;;;;;;5035458;28;20468;-72
2022/08/27 10:58:44;;;;;;;1.47;1.40;;;23.20;81.70;;;;;;5035537;28;20427;-73
2022/08/27 11:01:19;;;;;;;1.10;1.00;;;23.00;81.10;;;;;;5035148;28;20522;-73
2022/08/27 11:03:53;;;;;;;1.10;1.10;;;23.00;81.70;;;;;;5035302;28;20427;-72
2022/08/27 11:06:25;;;;;;;1.00;1.00;;;23.00;82.00;;;;;;5035214;28;20436;-72
2022/08/27 11:08:57;;;;;;;1.40;1.30;;;23.10;81.70;;;;;;5035198;28;20435;-73
2022/08/27 11:11:33;;;;;;;1.27;1.20;;;23.00;81.40;;;;;;5035062;28;20523;-72
2022/08/27 11:14:02;;;;;;;1.30;1.20;;;23.00;81.30;;;;;;5035243;28;20434;-73
2022/08/27 11:16:36;;;;;;;1.30;1.20;;;23.10;81.10;;;;;;5034716;28;20825;-73
2022/08/27 11:19:08;;;;;;;1.37;1.30;;;23.00;81.20;;;;;;5034950;28;20493;-74
2022/08/27 11:21:43;;;;;;;1.20;1.20;;;23.00;81.30;;;;;;5034557;28;20509;-71
2022/08/27 11:24:21;;;;;;;1.50;1.40;;;23.10;81.40;;;;;;5035014;28;20439;-73
2022/08/27 11:26:51;;;;;;;1.47;1.37;;;23.00;80.90;;;;;;5034902;28;20431;-72
2022/08/27 11:29:26;;;;;;;1.50;1.40;;;22.90;81.60;;;;;;5034759;28;20771;-73
2022/08/27 11:31:59;;;;;;;1.20;1.10;;;23.00;81.60;;;;;;5034557;28;20501;-72
2022/08/27 11:34:35;;;;;;;1.70;1.60;;;23.00;81.70;;;;;;5034637;28;20424;-73
2022/08/27 11:37:16;;;;;;;1.67;1.57;;;23.00;81.70;;;;;;5034621;28;20432;-73
2022/08/27 11:39:55;;;;;;;1.43;1.33;;;23.10;81.90;;;;;;5034245;28;20906;-72
2022/08/27 11:42:35;;;;;;;1.53;1.43;;;23.20;81.70;;;;;;5034439;28;20525;-73
2022/08/27 11:45:06;;;;;;;1.23;1.23;;;23.10;81.60;;;;;;5034525;28;20849;-73
2022/08/27 11:47:33;;;;;;;1.63;1.53;;;23.10;81.60;;;;;;5034487;28;20432;-73
2022/08/27 11:50:02;;;;;;;1.40;1.30;;;23.10;81.70;;;;;;5034290;28;20812;-73
2022/08/27 11:52:34;;;;;;;1.20;1.20;;;23.20;81.40;;;;;;5034267;28;20475;-73
2022/08/27 11:55:13;;;;;;;1.40;1.30;;;23.10;81.40;;;;;;5034273;28;20459;-73
2022/08/27 11:57:43;;;;;;;1.83;1.73;;;22.90;82.10;;;;;;5034570;28;20455;-72
2022/08/27 12:00:16;;;;;;;1.70;1.60;;;22.90;82.50;;;;;;5034232;28;20527;-73
2022/08/27 12:02:44;;;;;;;1.73;1.63;;;22.80;82.70;;;;;;5033662;28;20487;-73
2022/08/27 12:05:22;;;;;;;1.60;1.50;;;22.80;82.80;;;;;;5034122;28;20487;-73
2022/08/27 12:07:51;;;;;;;1.93;1.83;;;22.90;82.70;;;;;;5033806;28;20907;-73
2022/08/27 12:10:29;;;;;;;1.80;1.70;;;22.90;82.80;;;;;;5033933;28;20452;-73
2022/08/27 12:13:11;;;;;;;1.87;1.77;;;22.90;83.10;;;;;;5033967;28;20427;-73
2022/08/27 12:15:54;;;;;;;1.80;1.70;;;23.00;83.00;;;;;;5034458;28;20431;-73
2022/08/27 12:18:38;;;;;;;1.80;1.70;;;23.00;83.10;;;;;;5034646;28;20431;-73
2022/08/27 12:21:16;;;;;;;1.60;1.50;;;23.00;83.00;;;;;;5034053;28;20499;-73
2022/08/27 12:23:55;;;;;;;1.70;1.60;;;23.00;83.00;;;;;;5033822;28;20489;-72
2022/08/27 12:26:31;;;;;;;1.57;1.47;;;23.10;83.30;;;;;;5033338;28;20439;-73
2022/08/27 12:29:30;;;;;;;1.67;1.60;;;23.10;83.70;;;;;;5033736;28;20493;-73
2022/08/27 12:32:21;;;;;;;1.70;1.60;;;23.20;83.70;;;;;;5038890;28;20990;-72
2022/08/27 12:34:59;;;;;;;2.10;2.00;;;23.20;83.60;;;;;;5043573;28;20441;-73
2022/08/27 12:37:29;;;;;;;1.23;1.23;;;23.30;83.50;;;;;;5034824;28;20424;-73
2022/08/27 12:40:00;;;;;;;1.87;1.77;;;23.40;83.20;;;;;;5034134;28;20777;-73
2022/08/27 12:42:27;;;;;;;1.30;1.30;;;23.50;83.40;;;;;;5033580;28;21000;-73
2022/08/27 12:44:58;;;;;;;1.60;1.50;;;23.60;82.30;;;;;;5033880;28;20453;-73
2022/08/27 12:47:26;;;;;;;2.00;1.90;;;23.50;82.20;;;;;;5033850;28;20448;-73
2022/08/27 12:49:56;;;;;;;2.07;1.97;;;23.60;81.80;;;;;;5034233;28;20529;-73
2022/08/27 12:52:48;;;;;;;1.97;1.87;;;23.70;81.60;;;;;;5033696;28;20487;-73
2022/08/27 12:55:28;;;;;;;1.90;1.80;;;23.70;81.30;;;;;;5033745;28;20439;-73
2022/08/27 12:58:04;;;;;;;1.80;1.70;;;23.80;81.40;;;;;;5033691;28;20523;-73
2022/08/27 13:00:44;;;;;;;1.87;1.77;;;23.70;81.60;;;;;;5033715;28;20465;-72
2022/08/27 13:03:29;;;;;;;2.07;1.97;;;23.70;81.80;;;;;;5033897;28;20478;-73
2022/08/27 13:05:56;;;;;;;1.97;1.87;;;23.80;81.70;;;;;;5033428;28;20961;-73
2022/08/27 13:08:26;;;;;;;1.90;1.80;;;23.70;81.60;;;;;;5033683;28;20486;-73
2022/08/27 13:10:53;;;;;;;2.10;2.00;;;23.60;81.70;;;;;;5033560;28;20484;-73
2022/08/27 13:13:22;;;;;;;2.00;1.90;;;23.70;81.60;;;;;;5033654;28;20447;-73
2022/08/27 13:15:53;;;;;;;2.00;1.90;;;23.70;82.00;;;;;;5033604;28;20447;-73
2022/08/27 13:18:21;;;;;;;2.03;1.93;;;23.70;81.40;;;;;;5033670;28;20486;-73
2022/08/27 13:20:50;;;;;;;2.13;2.03;;;23.80;81.70;;;;;;5033477;28;20455;-73
2022/08/27 13:23:21;;;;;;;1.93;1.83;;;23.90;81.60;;;;;;5033377;28;20452;-73
2022/08/27 13:25:55;;;;;;;1.67;1.57;;;24.00;81.40;;;;;;5033427;28;20923;-73
2022/08/27 13:28:26;;;;;;;2.00;1.90;;;24.20;81.80;;;;;;5033389;28;20427;-73
2022/08/27 13:30:55;;;;;;;2.00;1.90;;;24.40;81.20;;;;;;5033062;28;20986;-73
2022/08/27 13:33:24;;;;;;;1.73;1.63;;;24.50;80.20;;;;;;5033520;28;20491;-73
2022/08/27 13:35:51;;;;;;;1.90;1.80;;;24.70;80.10;;;;;;5033407;28;20482;-73
2022/08/27 13:38:20;;;;;;;1.80;1.70;;;24.90;78.80;;;;;;5034659;28;20450;-73
2022/08/27 13:40:58;;;;;;;1.97;1.87;;;24.90;77.50;;;;;;5037110;28;20874;-73
2022/08/27 13:43:32;;;;;;;1.60;1.50;;;24.70;76.70;;;;;;5037235;28;20455;-73
2022/08/27 13:46:04;;;;;;;1.50;1.40;;;24.60;77.00;;;;;;5037471;28;20431;-73
2022/08/27 13:48:31;;;;;;;1.87;1.77;;;24.60;77.30;;;;;;5036995;28;20431;-73
2022/08/27 13:50:58;;;;;;;1.87;1.77;;;24.50;77.20;;;;;;5037084;28;20483;-73
2022/08/27 13:56:22;;;;;;;1.60;1.50;;;24.20;77.70;;;;;;5037514;28;20446;-73
2022/08/27 13:58:49;;;;;;;1.80;1.70;;;24.30;77.90;;;;;;5037038;28;20423;-73
2022/08/27 14:01:29;;;;;;;1.80;1.70;;;24.30;78.50;;;;;;5036846;28;20525;-73
2022/08/27 14:03:59;;;;;;;1.70;1.60;;;24.40;77.50;;;;;;5036884;28;20451;-73
2022/08/27 14:06:28;;;;;;;1.80;1.70;;;24.60;77.00;;;;;;5036866;28;20447;-73
2022/08/27 14:08:55;;;;;;;1.60;1.50;;;24.70;76.50;;;;;;5036118;28;21004;-73
2022/08/27 14:11:26;;;;;;;1.47;1.37;;;24.60;75.90;;;;;;5036280;28;20498;-73
2022/08/27 14:13:55;;;;;;;1.57;1.47;;;24.60;76.70;;;;;;5036560;28;20436;-73
2022/08/27 14:16:29;;;;;;;1.50;1.40;;;24.80;76.00;;;;;;5036148;28;20534;-73
2022/08/27 14:19:06;;;;;;;1.10;1.10;;;24.80;75.60;;;;;;5036195;28;20434;-73
2022/08/27 14:21:35;;;;;;;1.50;1.40;;;24.80;74.40;;;;;;5035833;28;21096;-73
2022/08/27 14:24:01;;;;;;;1.70;1.60;;;24.70;74.00;;;;;;5036020;28;20498;-73
2022/08/27 14:26:29;;;;;;;1.67;1.57;;;24.90;75.20;;;;;;5036036;28;20447;-73
2022/08/27 14:28:56;;;;;;;1.90;1.80;;;24.90;74.50;;;;;;5036027;28;20517;-73
2022/08/27 14:31:23;;;;;;;1.70;1.60;;;24.70;74.40;;;;;;5035729;28;20494;-73
2022/08/27 14:33:53;;;;;;;1.90;1.80;;;24.60;75.10;;;;;;5035843;28;20452;-73
2022/08/27 14:36:21;;;;;;;1.63;1.53;;;24.60;75.70;;;;;;5035434;28;20451;-73
2022/08/27 14:38:50;;;;;;;1.60;1.50;;;24.60;75.60;;;;;;5035690;28;20451;-73
2022/08/27 14:41:18;;;;;;;1.63;1.53;;;24.60;75.10;;;;;;5035606;28;20471;-73
2022/08/27 14:43:45;;;;;;;1.80;1.70;;;24.60;75.00;;;;;;5035342;28;20451;-73
2022/08/27 14:46:20;;;;;;;1.80;1.70;;;24.70;76.20;;;;;;5035299;28;20939;-72
2022/08/27 14:48:46;;;;;;;1.50;1.40;;;24.60;75.10;;;;;;5035154;28;20438;-73
2022/08/27 14:51:19;;;;;;;1.77;1.67;;;24.60;75.20;;;;;;5035373;28;20472;-73
2022/08/27 14:53:46;;;;;;;1.70;1.60;;;24.60;76.30;;;;;;5035489;28;20494;-73
2022/08/27 14:56:13;;;;;;;2.10;2.00;;;24.40;77.10;;;;;;5035599;28;20493;-72
2022/08/27 14:58:39;;;;;;;1.70;1.60;;;24.10;78.30;;;;;;5035424;28;20455;-73
2022/08/27 15:01:06;;;;;;;1.73;1.63;;;23.90;78.90;;;;;;5035035;28;20487;-73
2022/08/27 15:03:36;;;;;;;1.70;1.60;;;23.90;78.50;;;;;;5035506;28;20444;-72
2022/08/27 15:06:02;;;;;;;1.87;1.77;;;23.80;79.10;;;;;;5035311;28;20455;-73
2022/08/27 15:08:30;;;;;;;1.90;1.80;;;23.80;78.80;;;;;;5035222;28;20906;-72
2022/08/27 15:10:57;;;;;;;1.63;1.53;;;23.80;79.30;;;;;;5034812;28;20847;-73
2022/08/27 15:13:24;;;;;;;1.90;1.80;;;23.80;78.70;;;;;;5036551;28;20569;-72
2022/08/27 15:15:51;;;;;;;1.77;1.67;;;23.70;79.20;;;;;;5035357;28;20436;-73
2022/08/27 15:18:17;;;;;;;1.63;1.53;;;23.70;79.80;;;;;;5034985;28;20459;-73
2022/08/27 15:20:44;;;;;;;2.10;2.00;;;23.70;79.20;;;;;;5034885;28;20476;-73
2022/08/27 15:23:13;;;;;;;1.83;1.73;;;23.70;79.60;;;;;;5034856;28;20443;-72
2022/08/27 15:25:42;;;;;;;1.63;1.60;;;23.60;80.20;;;;;;5035687;28;20487;-73
2022/08/27 15:28:09;;;;;;;1.63;1.53;;;23.70;80.50;;;;;;5034485;28;20456;-73
2022/08/27 15:30:36;;;;;;;1.20;1.20;;;23.70;79.80;;;;;;5034322;28;20455;-73
2022/08/27 15:33:05;;;;;;;1.30;1.20;;;23.50;80.00;;;;;;5034584;28;20483;-73
2022/08/27 15:35:32;;;;;;;1.13;1.13;;;23.40;80.90;;;;;;5034621;28;20538;-72
2022/08/27 15:37:59;;;;;;;1.10;1.00;;;23.20;81.10;;;;;;5034633;28;20841;-73
2022/08/27 15:40:30;;;;;;;1.30;1.20;;;23.40;81.00;;;;;;5034465;28;20494;-73
2022/08/27 15:43:01;;;;;;;1.30;1.20;;;23.20;81.40;;;;;;5034501;28;20428;-73
2022/08/27 15:45:29;;;;;;;0.90;0.90;;;22.90;82.30;;;;;;5034441;28;20972;-73
2022/08/27 15:47:56;;;;;;;1.07;1.00;;;22.90;82.70;;;;;;5034446;28;20449;-73
2022/08/27 15:50:23;;;;;;;1.10;1.10;;;23.00;82.80;;;;;;5034360;28;20860;-73
2022/08/27 15:52:53;;;;;;;1.57;1.47;;;23.10;82.40;;;;;;5034458;28;20825;-73
2022/08/27 15:55:23;;;;;;;1.40;1.30;;;23.00;82.50;;;;;;5034231;28;20459;-73
2022/08/27 15:57:50;;;;;;;1.00;1.00;;;23.20;81.80;;;;;;5034256;28;20505;-73
2022/08/27 16:00:20;;;;;;;1.00;1.00;;;23.20;81.50;;;;;;5033685;28;20452;-73
2022/08/27 16:02:48;;;;;;;1.03;1.03;;;23.20;82.30;;;;;;5033689;28;20482;-73
2022/08/27 16:05:16;;;;;;;1.00;1.00;;;23.40;81.80;;;;;;5034098;28;20455;-73
2022/08/27 16:07:43;;;;;;;1.30;1.20;;;23.40;81.50;;;;;;5034098;28;20497;-73
2022/08/27 16:10:11;;;;;;;1.20;1.10;;;23.40;81.90;;;;;;5034124;28;20455;-73
2022/08/27 16:12:38;;;;;;;0.90;0.90;;;23.40;81.90;;;;;;5033870;28;20487;-73
2022/08/27 16:15:05;;;;;;;1.40;1.30;;;23.50;81.90;;;;;;5034020;28;20509;-73
2022/08/27 16:17:35;;;;;;;1.57;1.47;;;23.40;82.20;;;;;;5033974;28;20452;-72
2022/08/27 16:20:01;;;;;;;1.30;1.20;;;23.30;82.30;;;;;;5033567;28;20828;-73